createdAt,value
2018-09-12T00:01:22.972Z,10.60
2018-09-12T00:03:51.502Z,10.70
2018-09-12T00:06:20.003Z,10.70
2018-09-12T00:08:48.564Z,10.60
2018-09-12T00:11:17.124Z,10.60
2018-09-12T00:13:45.779Z,10.60
2018-09-12T00:16:14.311Z,10.60
2018-09-12T00:18:42.996Z,10.50
2018-09-12T00:21:11.543Z,10.50
2018-09-12T00:23:40.075Z,10.50
2018-09-12T00:26:08.620Z,10.40
2018-09-12T00:28:37.338Z,10.40
2018-09-12T00:31:06.300Z,10.40
2018-09-12T00:33:34.845Z,10.30
2018-09-12T00:36:03.413Z,10.30
2018-09-12T00:38:32.501Z,10.30
2018-09-12T00:41:01.000Z,10.30
2018-09-12T00:43:29.650Z,10.30
2018-09-12T00:45:58.210Z,10.30
2018-09-12T00:48:26.825Z,10.30
2018-09-12T00:50:55.318Z,10.30
2018-09-12T00:53:23.843Z,10.20
2018-09-12T00:55:52.471Z,10.20
2018-09-12T00:58:20.974Z,10.10
2018-09-12T01:00:49.527Z,10.00
2018-09-12T01:03:18.196Z,10.00
2018-09-12T01:05:46.730Z,10.10
2018-09-12T01:08:15.297Z,10.10
2018-09-12T01:10:43.856Z,10.00
2018-09-12T01:13:12.474Z,10.00
2018-09-12T01:15:40.968Z,10.00
2018-09-12T01:18:14.382Z,9.90
2018-09-12T01:20:43.523Z,9.90
2018-09-12T01:23:12.157Z,9.80
2018-09-12T01:25:40.881Z,9.80
2018-09-12T01:28:09.464Z,9.90
2018-09-12T01:30:38.064Z,9.90
2018-09-12T01:33:06.640Z,9.80
2018-09-12T01:35:35.165Z,9.80
2018-09-12T01:38:03.852Z,9.70
2018-09-12T01:40:32.443Z,9.70
2018-09-12T01:43:01.002Z,9.70
2018-09-12T01:45:29.633Z,9.70
2018-09-12T01:47:58.246Z,9.60
2018-09-12T01:50:26.788Z,9.60
2018-09-12T01:52:55.368Z,9.60
2018-09-12T01:55:23.896Z,9.50
2018-09-12T01:57:52.467Z,9.60
2018-09-12T02:00:25.296Z,9.50
2018-09-12T02:02:54.651Z,9.50
2018-09-12T02:05:23.226Z,9.50
2018-09-12T02:07:51.768Z,9.50
2018-09-12T02:10:20.345Z,9.40
2018-09-12T02:12:48.878Z,9.50
2018-09-12T02:15:17.469Z,9.50
2018-09-12T02:17:46.075Z,9.40
2018-09-12T02:20:14.620Z,9.30
2018-09-12T02:22:43.212Z,9.30
2018-09-12T02:25:12.576Z,9.30
2018-09-12T02:27:42.021Z,9.30
2018-09-12T02:30:10.541Z,9.30
2018-09-12T02:32:39.162Z,9.30
2018-09-12T02:35:07.672Z,9.20
2018-09-12T02:37:36.282Z,9.20
2018-09-12T02:40:05.048Z,9.20
2018-09-12T02:42:33.653Z,9.10
2018-09-12T02:45:02.834Z,9.10
2018-09-12T02:47:39.386Z,9.10
2018-09-12T02:50:10.211Z,9.10
2018-09-12T02:52:39.116Z,9.00
2018-09-12T02:55:09.085Z,9.10
2018-09-12T02:57:37.857Z,9.10
2018-09-12T03:00:07.885Z,9.00
2018-09-12T03:02:37.216Z,9.00
2018-09-12T03:05:06.265Z,8.90
2018-09-12T03:07:34.910Z,8.90
2018-09-12T03:10:04.139Z,8.80
2018-09-12T03:12:32.796Z,8.80
2018-09-12T03:15:01.452Z,8.80
2018-09-12T03:17:29.975Z,8.80
2018-09-12T03:19:59.370Z,8.80
2018-09-12T03:22:28.465Z,8.80
2018-09-12T03:24:57.772Z,8.80
2018-09-12T03:27:26.932Z,8.70
2018-09-12T03:29:55.459Z,8.70
2018-09-12T03:32:24.047Z,8.70
2018-09-12T03:34:52.917Z,8.70
2018-09-12T03:37:21.435Z,8.70
2018-09-12T03:39:50.687Z,8.70
2018-09-12T03:42:19.258Z,8.60
2018-09-12T03:44:47.786Z,8.60
2018-09-12T03:47:16.901Z,8.60
2018-09-12T03:49:45.706Z,8.50
2018-09-12T03:52:14.216Z,8.50
2018-09-12T03:54:42.894Z,8.50
2018-09-12T03:57:11.517Z,8.40
2018-09-12T03:59:40.273Z,8.50
2018-09-12T04:02:09.008Z,8.40
2018-09-12T04:04:37.772Z,8.40
2018-09-12T04:07:06.336Z,8.30
2018-09-12T04:09:34.918Z,8.30
2018-09-12T04:12:03.597Z,8.30
2018-09-12T04:14:32.128Z,8.30
2018-09-12T04:17:00.693Z,8.30
2018-09-12T04:19:29.172Z,8.30
2018-09-12T04:21:57.777Z,8.30
2018-09-12T04:24:26.436Z,8.20
2018-09-12T04:26:54.905Z,8.30
2018-09-12T04:29:23.412Z,8.20
2018-09-12T04:31:52.082Z,8.20
2018-09-12T04:34:20.612Z,8.30
2018-09-12T04:36:49.181Z,8.30
2018-09-12T04:39:17.703Z,8.30
2018-09-12T04:41:46.241Z,8.30
2018-09-12T04:44:15.300Z,8.20
2018-09-12T04:46:43.843Z,8.10
2018-09-12T04:49:12.433Z,8.10
2018-09-12T04:51:40.929Z,8.10
2018-09-12T04:54:09.422Z,8.10
2018-09-12T04:56:37.919Z,8.20
2018-09-12T04:59:06.440Z,8.10
2018-09-12T05:01:35.042Z,8.10
2018-09-12T05:04:04.916Z,8.10
2018-09-12T05:06:34.419Z,8.10
2018-09-12T05:09:03.147Z,8.10
2018-09-12T05:11:31.709Z,8.20
2018-09-12T05:14:00.324Z,8.10
2018-09-12T05:16:28.968Z,8.10
2018-09-12T05:18:57.449Z,8.10
2018-09-12T05:21:26.063Z,8.10
2018-09-12T05:23:54.920Z,8.20
2018-09-12T05:26:23.635Z,8.20
2018-09-12T05:28:52.708Z,8.20
2018-09-12T05:31:21.377Z,8.10
2018-09-12T05:33:49.888Z,8.20
2018-09-12T05:36:18.668Z,8.20
2018-09-12T05:38:47.869Z,8.30
2018-09-12T05:41:16.339Z,8.30
2018-09-12T05:43:44.852Z,8.30
2018-09-12T05:46:13.400Z,8.50
2018-09-12T05:48:41.956Z,8.50
2018-09-12T05:51:10.557Z,8.60
2018-09-12T05:53:39.132Z,8.60
2018-09-12T05:56:07.710Z,8.70
2018-09-12T05:58:36.809Z,8.80
2018-09-12T06:01:05.450Z,8.80
2018-09-12T06:03:34.159Z,8.90
2018-09-12T06:06:02.872Z,9.00
2018-09-12T06:08:31.463Z,9.10
2018-09-12T06:11:00.408Z,9.20
2018-09-12T06:13:29.809Z,9.30
2018-09-12T06:15:58.420Z,9.40
2018-09-12T06:18:27.090Z,9.50
2018-09-12T06:20:55.653Z,9.60
2018-09-12T06:23:24.328Z,9.70
2018-09-12T06:25:52.857Z,9.80
2018-09-12T06:28:21.510Z,10.00
2018-09-12T06:30:50.368Z,10.10
2018-09-12T06:33:18.896Z,10.30
2018-09-12T06:35:47.481Z,10.50
2018-09-12T06:38:16.187Z,10.70
2018-09-12T06:40:44.632Z,10.80
2018-09-12T06:43:13.269Z,11.00
2018-09-12T06:45:41.803Z,11.20
2018-09-12T06:48:10.361Z,11.30
2018-09-12T06:50:38.895Z,11.50
2018-09-12T06:53:07.468Z,11.70
2018-09-12T06:55:36.179Z,11.80
2018-09-12T06:58:04.733Z,12.00
2018-09-12T07:00:33.304Z,12.20
2018-09-12T07:03:02.113Z,12.40
2018-09-12T07:05:30.968Z,12.50
2018-09-12T07:07:59.494Z,12.60
2018-09-12T07:10:29.111Z,12.80
2018-09-12T07:12:57.756Z,12.90
2018-09-12T07:15:26.272Z,13.00
2018-09-12T07:17:54.882Z,13.20
2018-09-12T07:20:23.751Z,13.40
2018-09-12T07:22:52.400Z,13.50
2018-09-12T07:25:20.922Z,13.60
2018-09-12T07:27:49.630Z,13.80
2018-09-12T07:30:19.020Z,14.00
2018-09-12T07:32:47.564Z,14.20
2018-09-12T07:35:16.172Z,14.30
2018-09-12T07:37:44.763Z,14.50
2018-09-12T07:40:13.641Z,14.70
2018-09-12T07:42:42.329Z,14.90
2018-09-12T07:45:10.921Z,15.00
2018-09-12T07:47:39.818Z,15.20
2018-09-12T07:50:09.082Z,15.40
2018-09-12T07:52:37.775Z,15.70
2018-09-12T07:55:06.814Z,15.90
2018-09-12T07:57:35.619Z,16.00
2018-09-12T08:00:04.524Z,16.20
2018-09-12T08:02:34.037Z,16.30
2018-09-12T08:05:03.332Z,16.50
2018-09-12T08:07:31.796Z,16.70
2018-09-12T08:10:00.485Z,16.90
2018-09-12T08:12:29.000Z,17.00
2018-09-12T08:14:58.257Z,17.20
2018-09-12T08:17:27.620Z,17.30
2018-09-12T08:19:56.344Z,17.50
2018-09-12T08:22:24.963Z,17.60
2018-09-12T08:24:53.720Z,17.80
2018-09-12T08:27:22.666Z,18.00
2018-09-12T08:29:51.265Z,18.10
2018-09-12T08:32:20.097Z,18.30
2018-09-12T08:34:48.729Z,18.40
2018-09-12T08:37:17.576Z,18.60
2018-09-12T08:39:46.185Z,18.70
2018-09-12T08:42:14.960Z,18.90
2018-09-12T08:44:43.608Z,19.10
2018-09-12T08:47:12.831Z,19.20
2018-09-12T08:49:41.407Z,19.40
2018-09-12T08:52:09.993Z,19.60
2018-09-12T08:54:38.556Z,19.70
2018-09-12T08:57:07.110Z,20.00
2018-09-12T08:59:35.689Z,20.20
2018-09-12T09:02:04.296Z,20.40
2018-09-12T09:04:33.101Z,20.60
2018-09-12T09:07:01.751Z,20.90
2018-09-12T09:09:30.449Z,21.10
2018-09-12T09:11:59.202Z,21.20
2018-09-12T09:14:27.857Z,21.40
2018-09-12T09:16:56.457Z,21.50
2018-09-12T09:19:25.088Z,21.80
2018-09-12T09:21:53.648Z,22.00
2018-09-12T09:24:22.417Z,22.20
2018-09-12T09:26:50.950Z,22.40
2018-09-12T09:29:20.216Z,22.70
2018-09-12T09:31:48.768Z,23.00
2018-09-12T09:34:17.306Z,23.10
2018-09-12T09:36:45.897Z,23.20
2018-09-12T09:39:14.508Z,23.40
2018-09-12T09:41:43.021Z,23.60
2018-09-12T09:44:11.556Z,23.80
2018-09-12T09:46:40.908Z,23.90
2018-09-12T09:49:09.458Z,24.20
2018-09-12T09:51:38.100Z,24.30
2018-09-12T09:54:06.610Z,24.40
2018-09-12T09:56:35.170Z,24.60
2018-09-12T09:59:03.861Z,24.70
2018-09-12T10:01:38.111Z,24.90
2018-09-12T10:04:16.915Z,25.00
2018-09-12T10:06:51.667Z,25.10
2018-09-12T10:09:25.515Z,25.40
2018-09-12T10:11:54.179Z,25.60
2018-09-12T10:14:22.832Z,25.70
2018-09-12T10:16:51.365Z,25.90
2018-09-12T10:19:20.612Z,26.00
2018-09-12T10:21:49.343Z,26.20
2018-09-12T10:24:18.628Z,26.30
2018-09-12T10:26:47.135Z,26.40
2018-09-12T10:29:16.193Z,26.40
2018-09-12T10:31:44.943Z,26.60
2018-09-12T10:34:13.530Z,26.60
2018-09-12T10:36:42.056Z,26.70
2018-09-12T10:39:12.606Z,26.80
2018-09-12T10:41:42.764Z,26.80
2018-09-12T10:44:11.446Z,27.00
2018-09-12T10:46:40.124Z,27.30
2018-09-12T10:49:08.752Z,27.20
2018-09-12T10:51:37.320Z,27.20
2018-09-12T10:54:06.542Z,27.30
2018-09-12T10:56:35.144Z,27.40
2018-09-12T10:59:03.873Z,27.40
2018-09-12T11:01:32.556Z,27.50
2018-09-12T11:04:01.117Z,27.50
2018-09-12T11:06:29.686Z,27.70
2018-09-12T11:08:58.238Z,27.80
2018-09-12T11:11:26.802Z,27.80
2018-09-12T11:13:55.324Z,27.90
2018-09-12T11:16:23.836Z,27.90
2018-09-12T11:18:52.975Z,28.00
2018-09-12T11:21:21.700Z,28.00
2018-09-12T11:23:50.369Z,28.00
2018-09-12T11:26:18.879Z,28.10
2018-09-12T11:28:47.537Z,28.10
2018-09-12T11:31:16.026Z,28.10
2018-09-12T11:33:44.577Z,28.00
2018-09-12T11:36:13.136Z,28.20
2018-09-12T11:38:41.705Z,28.10
2018-09-12T11:41:10.277Z,28.20
2018-09-12T11:43:38.813Z,28.30
2018-09-12T11:46:07.348Z,28.30
2018-09-12T11:48:36.645Z,28.40
2018-09-12T11:51:05.232Z,28.50
2018-09-12T11:53:33.763Z,28.60
2018-09-12T11:56:02.959Z,28.60
2018-09-12T11:58:31.505Z,28.60
2018-09-12T12:01:00.061Z,28.60
2018-09-12T12:03:28.637Z,28.60
2018-09-12T12:05:57.269Z,28.70
2018-09-12T12:08:25.836Z,28.70
2018-09-12T12:10:54.412Z,28.70
2018-09-12T12:13:22.947Z,28.80
2018-09-12T12:15:52.256Z,28.90
2018-09-12T12:18:21.509Z,29.00
2018-09-12T12:20:50.076Z,28.80
2018-09-12T12:23:18.880Z,28.80
2018-09-12T12:25:47.346Z,28.70
2018-09-12T12:28:16.051Z,28.80
2018-09-12T12:30:44.705Z,28.80
2018-09-12T12:33:13.770Z,29.00
2018-09-12T12:35:42.470Z,29.00
2018-09-12T12:38:11.211Z,29.10
2018-09-12T12:40:40.494Z,29.40
2018-09-12T12:43:09.121Z,29.70
2018-09-12T12:45:37.628Z,29.90
2018-09-12T12:48:06.792Z,30.00
2018-09-12T12:50:35.371Z,29.90
2018-09-12T12:53:03.892Z,30.00
2018-09-12T12:55:33.221Z,30.20
2018-09-12T12:58:01.867Z,30.60
2018-09-12T13:00:30.402Z,30.50
2018-09-12T13:02:59.016Z,30.60
2018-09-12T13:05:27.658Z,30.40
2018-09-12T13:07:56.131Z,30.40
2018-09-12T13:10:24.713Z,30.30
2018-09-12T13:12:53.271Z,30.00
2018-09-12T13:15:21.882Z,29.80
2018-09-12T13:17:51.168Z,29.90
2018-09-12T13:20:19.778Z,29.90
2018-09-12T13:22:48.424Z,29.80
2018-09-12T13:25:17.092Z,29.70
2018-09-12T13:27:45.792Z,29.60
2018-09-12T13:30:14.984Z,29.60
2018-09-12T13:32:43.701Z,29.60
2018-09-12T13:35:12.361Z,29.60
2018-09-12T13:37:41.486Z,29.60
2018-09-12T13:40:10.210Z,29.60
2018-09-12T13:42:39.372Z,29.60
2018-09-12T13:45:07.948Z,29.60
2018-09-12T13:47:37.133Z,29.60
2018-09-12T13:50:05.938Z,29.60
2018-09-12T13:52:34.544Z,29.60
2018-09-12T13:55:03.157Z,29.60
2018-09-12T13:57:31.708Z,29.70
2018-09-12T14:00:00.353Z,29.80
2018-09-12T14:02:28.915Z,29.80
2018-09-12T14:04:57.475Z,29.90
2018-09-12T14:07:26.148Z,29.90
2018-09-12T14:09:54.717Z,30.10
2018-09-12T14:12:23.283Z,30.10
2018-09-12T14:14:51.811Z,30.00
2018-09-12T14:17:20.453Z,29.90
2018-09-12T14:19:50.969Z,29.90
2018-09-12T14:22:19.577Z,30.00
2018-09-12T14:24:48.479Z,30.00
2018-09-12T14:27:17.982Z,30.10
2018-09-12T14:29:50.104Z,30.10
2018-09-12T14:32:18.808Z,30.10
2018-09-12T14:34:47.338Z,30.00
2018-09-12T14:37:15.921Z,30.00
2018-09-12T14:39:44.672Z,29.90
2018-09-12T14:42:13.288Z,30.00
2018-09-12T14:44:42.164Z,30.10
2018-09-12T14:47:10.743Z,30.30
2018-09-12T14:49:39.313Z,30.50
2018-09-12T14:52:07.943Z,30.50
2018-09-12T14:54:36.589Z,30.60
2018-09-12T14:57:05.417Z,30.60
2018-09-12T14:59:34.260Z,30.70
2018-09-12T15:02:02.991Z,30.70
2018-09-12T15:04:31.721Z,30.70
2018-09-12T15:07:00.415Z,30.60
2018-09-12T15:09:29.140Z,30.80
2018-09-12T15:11:57.756Z,30.90
2018-09-12T15:14:27.369Z,30.70
2018-09-12T15:16:56.236Z,30.50
2018-09-12T15:19:30.799Z,30.70
2018-09-12T15:21:59.509Z,31.10
2018-09-12T15:24:28.635Z,31.60
2018-09-12T15:26:57.594Z,31.90
2018-09-12T15:29:26.435Z,32.20
2018-09-12T15:31:55.272Z,32.60
2018-09-12T15:34:23.975Z,33.20
2018-09-12T15:36:52.867Z,34.00
2018-09-12T15:39:21.505Z,35.00
2018-09-12T15:41:50.149Z,35.60
2018-09-12T15:44:18.731Z,35.50
2018-09-12T15:46:47.830Z,35.60
2018-09-12T15:49:16.460Z,35.60
2018-09-12T15:51:45.273Z,35.80
2018-09-12T15:54:14.028Z,36.30
2018-09-12T15:56:42.795Z,36.80
2018-09-12T15:59:14.402Z,37.10
2018-09-12T16:01:43.726Z,37.30
2018-09-12T16:04:12.495Z,37.20
2018-09-12T16:06:41.749Z,37.20
2018-09-12T16:09:10.942Z,37.10
2018-09-12T16:11:39.639Z,37.60
2018-09-12T16:14:08.424Z,37.50
2018-09-12T16:16:37.163Z,37.40
2018-09-12T16:19:06.675Z,37.10
2018-09-12T16:21:35.526Z,36.10
2018-09-12T16:24:04.191Z,35.30
2018-09-12T16:26:33.118Z,35.10
2018-09-12T16:29:01.824Z,35.30
2018-09-12T16:31:31.046Z,35.80
2018-09-12T16:33:59.709Z,35.90
2018-09-12T16:36:28.849Z,36.30
2018-09-12T16:38:57.633Z,35.60
2018-09-12T16:41:26.294Z,34.40
2018-09-12T16:43:55.109Z,32.80
2018-09-12T16:46:24.488Z,31.40
2018-09-12T16:48:53.143Z,30.20
2018-09-12T16:51:21.781Z,29.20
2018-09-12T16:53:50.447Z,28.40
2018-09-12T16:56:19.345Z,27.90
2018-09-12T16:58:48.373Z,27.40
2018-09-12T17:01:17.103Z,26.80
2018-09-12T17:03:45.875Z,26.40
2018-09-12T17:06:14.579Z,26.10
2018-09-12T17:08:43.581Z,25.80
2018-09-12T17:11:12.349Z,25.60
2018-09-12T17:13:41.061Z,25.40
2018-09-12T17:16:10.672Z,25.10
2018-09-12T17:18:39.646Z,24.90
2018-09-12T17:21:08.735Z,24.60
2018-09-12T17:23:37.413Z,24.40
2018-09-12T17:26:06.224Z,23.90
2018-09-12T17:28:34.910Z,23.50
2018-09-12T17:31:03.729Z,23.00
2018-09-12T17:33:32.659Z,22.70
2018-09-12T17:36:02.049Z,22.50
2018-09-12T17:38:31.048Z,22.20
2018-09-12T17:41:00.552Z,22.10
2018-09-12T17:43:29.737Z,22.00
2018-09-12T17:45:59.274Z,21.80
2018-09-12T17:48:29.256Z,21.60
2018-09-12T17:50:58.561Z,21.40
2018-09-12T17:53:27.446Z,21.30
2018-09-12T17:55:56.664Z,21.10
2018-09-12T17:58:25.763Z,20.90
2018-09-12T18:00:55.314Z,20.70
2018-09-12T18:03:25.299Z,20.50
2018-09-12T18:05:55.694Z,20.20
2018-09-12T18:08:24.824Z,20.10
2018-09-12T18:10:53.725Z,19.90
2018-09-12T18:13:22.342Z,19.70
2018-09-12T18:15:52.477Z,19.70
2018-09-12T18:18:21.175Z,19.60
2018-09-12T18:20:49.916Z,19.40
2018-09-12T18:23:19.172Z,19.30
2018-09-12T18:25:48.340Z,19.20
2018-09-12T18:28:18.253Z,19.10
2018-09-12T18:30:47.461Z,19.10
2018-09-12T18:33:16.271Z,18.90
2018-09-12T18:35:45.372Z,18.80
2018-09-12T18:38:14.693Z,18.70
2018-09-12T18:40:43.711Z,18.60
2018-09-12T18:43:14.315Z,18.60
2018-09-12T18:45:44.228Z,18.50
2018-09-12T18:48:13.856Z,18.60
2018-09-12T18:50:43.803Z,18.60
2018-09-12T18:53:13.291Z,18.60
2018-09-12T18:55:43.180Z,18.60
2018-09-12T18:58:13.388Z,18.60
2018-09-12T19:00:43.612Z,18.60
2018-09-12T19:03:12.998Z,18.60
2018-09-12T19:05:42.854Z,18.60
2018-09-12T19:08:12.150Z,18.60
2018-09-12T19:10:42.419Z,18.70
2018-09-12T19:13:15.986Z,18.80
2018-09-12T19:15:45.757Z,18.90
2018-09-12T19:18:14.962Z,19.00
2018-09-12T19:20:45.008Z,19.00
2018-09-12T19:23:14.077Z,19.20
2018-09-12T19:25:43.387Z,19.40
2018-09-12T19:28:12.532Z,19.70
2018-09-12T19:30:42.733Z,20.00
2018-09-12T19:33:12.037Z,20.40
2018-09-12T19:35:42.599Z,20.50
2018-09-12T19:38:11.627Z,20.50
2018-09-12T19:40:40.642Z,20.50
2018-09-12T19:43:10.173Z,20.40
2018-09-12T19:45:39.589Z,20.40
2018-09-12T19:48:09.201Z,20.30
2018-09-12T19:50:37.887Z,20.20
2018-09-12T19:53:06.672Z,20.10
2018-09-12T19:55:36.183Z,20.00
2018-09-12T19:58:05.089Z,19.90
2018-09-12T20:00:34.541Z,19.70
2018-09-12T20:03:03.737Z,19.70
2018-09-12T20:05:33.133Z,19.60
2018-09-12T20:08:02.119Z,19.40
2018-09-12T20:10:31.575Z,19.30
2018-09-12T20:13:00.594Z,19.20
2018-09-12T20:15:29.680Z,19.00
2018-09-12T20:17:59.031Z,18.90
2018-09-12T20:20:27.992Z,18.70
2018-09-12T20:22:56.813Z,18.60
2018-09-12T20:25:26.229Z,18.50
2018-09-12T20:27:56.098Z,18.50
2018-09-12T20:30:25.478Z,18.40
2018-09-12T20:32:54.410Z,18.50
2018-09-12T20:35:23.366Z,18.50
2018-09-12T20:37:54.889Z,18.50
2018-09-12T20:40:23.989Z,18.30
2018-09-12T20:42:53.759Z,18.40
2018-09-12T20:45:22.865Z,18.40
2018-09-12T20:47:56.609Z,18.40
2018-09-12T20:50:25.552Z,18.40
2018-09-12T20:52:55.014Z,18.30
2018-09-12T20:55:24.618Z,18.20
2018-09-12T20:57:53.248Z,18.50
2018-09-12T21:00:23.481Z,18.40
2018-09-12T21:02:52.927Z,18.30
2018-09-12T21:05:21.996Z,17.90
2018-09-12T21:07:50.613Z,17.70
2018-09-12T21:10:19.346Z,17.70
2018-09-12T21:12:47.915Z,17.60
2018-09-12T21:15:16.582Z,17.50
2018-09-12T21:17:45.195Z,17.40
2018-09-12T21:20:13.752Z,17.30
2018-09-12T21:22:42.599Z,17.10
2018-09-12T21:25:11.204Z,17.00
2018-09-12T21:27:39.693Z,17.00
2018-09-12T21:30:08.293Z,17.00
2018-09-12T21:32:37.868Z,17.00
2018-09-12T21:35:06.507Z,16.90
2018-09-12T21:37:35.265Z,16.80
2018-09-12T21:40:03.879Z,16.70
2018-09-12T21:42:32.476Z,16.70
2018-09-12T21:45:01.366Z,16.60
2018-09-12T21:47:30.014Z,16.50
2018-09-12T21:49:58.541Z,16.40
2018-09-12T21:52:27.368Z,16.30
2018-09-12T21:54:56.742Z,16.20
2018-09-12T21:57:25.811Z,16.10
2018-09-12T21:59:54.543Z,16.00
2018-09-12T22:02:23.310Z,15.90
2018-09-12T22:04:51.953Z,15.80
2018-09-12T22:07:20.933Z,15.70
2018-09-12T22:09:49.632Z,15.80
2018-09-12T22:12:18.313Z,15.90
2018-09-12T22:14:46.923Z,15.70
2018-09-12T22:17:15.832Z,15.70
2018-09-12T22:19:44.708Z,15.80
2018-09-12T22:22:13.716Z,15.90
2018-09-12T22:24:43.457Z,15.70
2018-09-12T22:27:12.592Z,15.70
2018-09-12T22:29:42.431Z,15.70
2018-09-12T22:32:12.435Z,15.50
2018-09-12T22:34:41.625Z,15.50
2018-09-12T22:37:11.018Z,15.40
2018-09-12T22:39:39.891Z,15.40
2018-09-12T22:42:09.142Z,15.30
2018-09-12T22:44:38.395Z,15.20
2018-09-12T22:47:07.473Z,15.20
2018-09-12T22:49:36.616Z,15.30
2018-09-12T22:52:05.754Z,15.20
2018-09-12T22:54:35.108Z,15.20
2018-09-12T22:57:05.152Z,15.30
2018-09-12T22:59:34.204Z,15.30
2018-09-12T23:02:03.390Z,15.30
2018-09-12T23:04:32.811Z,15.40
2018-09-12T23:07:02.615Z,15.30
2018-09-12T23:09:31.766Z,15.30
2018-09-12T23:12:00.682Z,15.30
2018-09-12T23:14:29.717Z,15.40
2018-09-12T23:16:59.404Z,15.40
2018-09-12T23:19:28.463Z,15.50
2018-09-12T23:21:58.343Z,15.50
2018-09-12T23:24:27.976Z,15.60
2018-09-12T23:26:57.048Z,15.60
2018-09-12T23:29:26.149Z,15.60
2018-09-12T23:31:55.505Z,15.70
2018-09-12T23:34:24.670Z,15.70
2018-09-12T23:36:53.772Z,15.70
2018-09-12T23:39:43.047Z,15.90
2018-09-12T23:42:11.599Z,15.90
2018-09-12T23:44:40.333Z,16.00
2018-09-12T23:47:09.504Z,16.00
2018-09-12T23:49:38.040Z,15.90
2018-09-12T23:52:06.820Z,15.70
2018-09-12T23:54:35.504Z,15.70
2018-09-12T23:57:04.194Z,15.80
2018-09-12T23:59:33.487Z,15.80
